Time;durP1;ratioP1;P1;durP2;ratioP2;P2;SDS_P1;SDS_P2;PMS_P1;PMS_P2;Temp;Humidity;BMP_temperature;BMP_pressure;BME280_temperature;BME280_humidity;BME280_pressure;Samples;Min_cycle;Max_cycle;Signal;HPM_P1;HPM_P2
2019/10/28 00:00:07;;;;;;;15.4;12.3;;;;;;;13.45;100;963.69;;;;
2019/10/28 00:02:32;;;;;;;15.5;13;;;;;;;13.42;100;963.6241;;;;
2019/10/28 00:04:57;;;;;;;15.4;12.8;;;;;;;13.38;100;963.6163;;;;
2019/10/28 00:07:22;;;;;;;14.6;12.7;;;;;;;13.43;100;963.649;;;;
2019/10/28 00:09:47;;;;;;;16.7;13.4;;;;;;;13.41;100;963.5897;;;;
2019/10/28 00:12:12;;;;;;;18.3;13.3;;;;;;;13.46;100;963.6147;;;;
2019/10/28 00:14:38;;;;;;;14.4;12.8;;;;;;;13.4;100;963.5922;;;;
2019/10/28 00:17:03;;;;;;;14.6;13;;;;;;;13.35;100;963.5528;;;;
2019/10/28 00:19:28;;;;;;;19.9;13.9;;;;;;;13.31;100;963.5916;;;;
2019/10/28 00:21:54;;;;;;;16.3;13.5;;;;;;;13.33;100;963.5672;;;;
2019/10/28 00:24:19;;;;;;;15.4;12.9;;;;;;;13.34;100;963.5111;;;;
2019/10/28 00:26:44;;;;;;;14.8;12.4;;;;;;;13.4;100;963.5664;;;;
2019/10/28 00:29:10;;;;;;;13.8;12.3;;;;;;;13.36;100;963.5659;;;;
2019/10/28 00:31:35;;;;;;;15;12.1;;;;;;;13.42;100;963.5758;;;;
2019/10/28 00:34:00;;;;;;;13.7;11.6;;;;;;;13.4;100;963.5652;;;;
2019/10/28 00:36:25;;;;;;;13.4;11.4;;;;;;;13.45;100;963.5828;;;;
2019/10/28 00:38:51;;;;;;;14;12.2;;;;;;;13.37;100;963.5242;;;;
2019/10/28 00:41:16;;;;;;;12.9;11.6;;;;;;;13.46;100;963.5767;;;;
2019/10/28 00:43:41;;;;;;;14.2;12.1;;;;;;;13.44;100;963.5811;;;;
2019/10/28 00:46:06;;;;;;;12.9;11.6;;;;;;;13.47;100;963.5505;;;;
2019/10/28 00:48:31;;;;;;;13.4;12;;;;;;;13.5;100;963.5361;;;;
2019/10/28 00:50:57;;;;;;;13.9;12.4;;;;;;;13.45;100;963.5148;;;;
2019/10/28 00:53:22;;;;;;;15.6;13.2;;;;;;;13.27;100;963.5147;;;;
2019/10/28 00:55:47;;;;;;;16.2;13;;;;;;;13.33;100;963.4894;;;;
2019/10/28 00:58:12;;;;;;;14.6;12.9;;;;;;;13.32;100;963.4967;;;;
2019/10/28 01:00:38;;;;;;;16.2;13.3;;;;;;;13.28;100;963.5098;;;;
2019/10/28 01:03:03;;;;;;;14.2;12.7;;;;;;;13.32;100;963.5139;;;;
2019/10/28 01:05:28;;;;;;;15.4;12.4;;;;;;;13.33;100;963.5049;;;;
2019/10/28 01:07:53;;;;;;;15.1;13.3;;;;;;;13.3;100;963.5274;;;;
2019/10/28 01:10:18;;;;;;;14.6;13;;;;;;;13.23;100;963.4934;;;;
2019/10/28 01:12:43;;;;;;;16.4;13.4;;;;;;;13.25;100;963.4717;;;;
2019/10/28 01:15:09;;;;;;;14;12.5;;;;;;;13.39;100;963.4984;;;;
2019/10/28 01:17:34;;;;;;;15.5;13.6;;;;;;;13.29;100;963.4914;;;;
2019/10/28 01:19:59;;;;;;;14.8;12.9;;;;;;;13.3;100;963.4849;;;;
2019/10/28 01:22:24;;;;;;;15.7;13.3;;;;;;;13.3;100;963.4504;;;;
2019/10/28 01:24:50;;;;;;;14.2;12.7;;;;;;;13.43;100;963.4583;;;;
2019/10/28 01:27:15;;;;;;;14.7;12.3;;;;;;;13.4;100;963.4199;;;;
2019/10/28 01:29:40;;;;;;;14.5;12.7;;;;;;;13.28;100;963.4362;;;;
2019/10/28 01:32:05;;;;;;;14.1;12.4;;;;;;;13.44;100;963.3822;;;;
2019/10/28 01:34:30;;;;;;;14.9;13;;;;;;;13.35;100;963.3792;;;;
2019/10/28 01:36:55;;;;;;;13.6;12.1;;;;;;;13.38;100;963.392;;;;
2019/10/28 01:39:20;;;;;;;14.3;12;;;;;;;13.35;100;963.3964;;;;
2019/10/28 01:41:45;;;;;;;13.6;11.7;;;;;;;13.4;100;963.3817;;;;
2019/10/28 01:44:11;;;;;;;15.7;12.4;;;;;;;13.36;100;963.5095;;;;
2019/10/28 01:46:36;;;;;;;12.1;10.9;;;;;;;12.98;100;963.4812;;;;
2019/10/28 01:49:01;;;;;;;7.8;7;;;;;;;12.56;100;963.5264;;;;
2019/10/28 01:51:26;;;;;;;7.7;7.1;;;;;;;11.93;100;963.5636;;;;
2019/10/28 01:53:51;;;;;;;8.4;7.7;;;;;;;11.63;100;963.6476;;;;
2019/10/28 01:56:16;;;;;;;8.1;7.5;;;;;;;11.33;100;963.7227;;;;
2019/10/28 01:58:41;;;;;;;7.4;6.8;;;;;;;11.17;100;963.7198;;;;
2019/10/28 02:01:06;;;;;;;7.1;6.5;;;;;;;11.19;100;963.7204;;;;
2019/10/28 02:03:31;;;;;;;6.5;5.9;;;;;;;10.91;100;963.6858;;;;
2019/10/28 02:05:56;;;;;;;6;5.5;;;;;;;10.72;100;963.736;;;;
2019/10/28 02:08:22;;;;;;;5;4.6;;;;;;;10.39;98.81055;963.6891;;;;
2019/10/28 02:10:47;;;;;;;6.3;5.7;;;;;;;10.34;100;963.765;;;;
2019/10/28 02:13:12;;;;;;;6;5.5;;;;;;;10.03;100;963.8036;;;;
2019/10/28 02:15:37;;;;;;;6.5;5.6;;;;;;;10.1;100;963.7966;;;;
2019/10/28 02:18:02;;;;;;;6.9;6.3;;;;;;;10.05;100;963.8178;;;;
2019/10/28 02:20:27;;;;;;;6.5;5.9;;;;;;;10.07;100;963.7851;;;;
2019/10/28 02:22:52;;;;;;;6.5;5.8;;;;;;;9.96;100;963.8186;;;;
2019/10/28 02:26:04;;;;;;;7.2;6.4;;;;;;;9.99;100;963.8092;;;;
2019/10/28 02:28:29;;;;;;;7.9;7.1;;;;;;;9.91;100;963.7522;;;;
2019/10/28 02:30:54;;;;;;;7.7;6.6;;;;;;;9.94;100;963.7759;;;;
2019/10/28 02:33:19;;;;;;;9.1;7.6;;;;;;;9.73;100;963.7762;;;;
2019/10/28 02:35:44;;;;;;;9.5;8.2;;;;;;;9.71;100;963.7692;;;;
2019/10/28 02:38:09;;;;;;;8.1;7.3;;;;;;;9.76;100;963.8253;;;;
2019/10/28 02:40:34;;;;;;;7.7;7;;;;;;;9.66;100;963.7709;;;;
2019/10/28 02:42:59;;;;;;;7.5;6.7;;;;;;;9.45;100;963.78;;;;
2019/10/28 02:45:25;;;;;;;6.5;6;;;;;;;9.58;99.83203;963.8022;;;;
2019/10/28 02:47:50;;;;;;;8;7.3;;;;;;;9.48;100;963.8474;;;;
2019/10/28 02:50:15;;;;;;;7.8;7.1;;;;;;;9.47;100;963.8442;;;;
2019/10/28 02:52:40;;;;;;;8.8;8.1;;;;;;;9.53;100;963.8403;;;;
2019/10/28 02:55:05;;;;;;;10.8;9.8;;;;;;;9.24;100;963.8753;;;;
2019/10/28 02:57:30;;;;;;;11.2;10.2;;;;;;;9.17;100;963.8448;;;;
2019/10/28 02:59:55;;;;;;;12;11;;;;;;;9.31;100;963.8777;;;;
2019/10/28 03:02:20;;;;;;;10.4;9.5;;;;;;;9.21;100;963.8423;;;;
2019/10/28 03:04:45;;;;;;;11.8;10.8;;;;;;;8.94;100;963.9163;;;;
2019/10/28 03:07:10;;;;;;;12;11;;;;;;;9.08;100;963.9177;;;;
2019/10/28 03:09:36;;;;;;;14.6;13.2;;;;;;;9.11;100;963.9608;;;;
2019/10/28 03:12:01;;;;;;;15.3;14;;;;;;;9.04;100;963.8945;;;;
2019/10/28 03:14:26;;;;;;;15.4;13.9;;;;;;;8.94;100;963.9099;;;;
2019/10/28 03:16:51;;;;;;;13.2;11.9;;;;;;;8.88;100;963.9119;;;;
2019/10/28 03:19:16;;;;;;;13.5;12.3;;;;;;;8.81;100;963.9406;;;;
2019/10/28 03:21:41;;;;;;;13.4;12.1;;;;;;;8.77;100;963.9679;;;;
2019/10/28 03:24:06;;;;;;;13.1;12;;;;;;;9.02;100;964.0134;;;;
2019/10/28 03:26:31;;;;;;;12.4;11.4;;;;;;;8.84;100;964.0342;;;;
2019/10/28 03:28:56;;;;;;;11.5;10.5;;;;;;;8.91;100;964.1331;;;;
2019/10/28 03:31:21;;;;;;;10.7;9.8;;;;;;;8.73;100;964.1345;;;;
2019/10/28 03:33:46;;;;;;;12.4;11.4;;;;;;;8.77;100;964.1424;;;;
2019/10/28 03:36:12;;;;;;;11.9;10.8;;;;;;;8.52;100;964.1177;;;;
2019/10/28 03:38:37;;;;;;;12;11;;;;;;;8.6;100;964.0952;;;;
2019/10/28 03:41:02;;;;;;;12.5;11.4;;;;;;;8.61;100;964.0833;;;;
2019/10/28 03:43:27;;;;;;;11.2;10.2;;;;;;;8.64;100;964.125;;;;
2019/10/28 03:45:52;;;;;;;11.2;10.2;;;;;;;8.57;100;964.1764;;;;
2019/10/28 03:48:17;;;;;;;12.1;11.1;;;;;;;8.53;100;964.1636;;;;
2019/10/28 03:50:42;;;;;;;12.9;11.7;;;;;;;8.41;100;964.2351;;;;
2019/10/28 03:53:07;;;;;;;11.8;10.9;;;;;;;8.5;100;964.2123;;;;
2019/10/28 03:55:40;;;;;;;10.6;9.7;;;;;;;8.6;100;964.2204;;;;
2019/10/28 03:57:58;;;;;;;11.5;10.5;;;;;;;8.4;100;964.2305;;;;
2019/10/28 04:02:30;;;;;;;12.1;10.9;;;;;;;8.38;100;964.2528;;;;
2019/10/28 04:04:54;;;;;;;10.9;9.9;;;;;;;8.35;100;964.2611;;;;
2019/10/28 04:07:19;;;;;;;10.4;9.4;;;;;;;8.52;100;964.2728;;;;
2019/10/28 04:09:44;;;;;;;9.7;8.8;;;;;;;8.44;100;964.3497;;;;
2019/10/28 04:12:09;;;;;;;9.6;8.7;;;;;;;8.56;100;964.3069;;;;
2019/10/28 04:14:34;;;;;;;11.2;10.1;;;;;;;8.48;100;964.3933;;;;
2019/10/28 04:16:59;;;;;;;11.4;9.7;;;;;;;8.44;100;964.3481;;;;
2019/10/28 04:19:24;;;;;;;15.5;12.9;;;;;;;8.42;100;964.3613;;;;
2019/10/28 04:21:49;;;;;;;14.5;12.2;;;;;;;8.45;100;964.338;;;;
2019/10/28 04:24:14;;;;;;;12.6;11.2;;;;;;;8.48;100;964.3455;;;;
2019/10/28 04:26:39;;;;;;;12;10.6;;;;;;;8.41;100;964.3528;;;;
2019/10/28 04:29:04;;;;;;;11.4;10.2;;;;;;;8.44;100;964.3318;;;;
2019/10/28 04:31:29;;;;;;;11;10;;;;;;;8.32;100;964.3038;;;;
2019/10/28 04:33:55;;;;;;;11.6;10.5;;;;;;;8.24;100;964.2189;;;;
2019/10/28 04:36:20;;;;;;;11.4;10.4;;;;;;;8.33;100;964.1758;;;;
2019/10/28 04:38:45;;;;;;;12.7;11.5;;;;;;;8.54;100;964.1916;;;;
2019/10/28 04:41:10;;;;;;;11.5;10.5;;;;;;;8.4;100;964.2564;;;;
2019/10/28 04:43:35;;;;;;;11.5;10.5;;;;;;;8.37;100;964.2249;;;;
2019/10/28 04:46:00;;;;;;;11.1;10.1;;;;;;;8.29;100;964.2541;;;;
2019/10/28 04:48:25;;;;;;;12.4;11.3;;;;;;;8.32;100;964.1967;;;;
2019/10/28 04:50:50;;;;;;;10.8;9.8;;;;;;;8.29;100;964.1558;;;;
2019/10/28 04:53:15;;;;;;;11;10;;;;;;;8.34;100;964.1792;;;;
2019/10/28 04:55:41;;;;;;;10.8;9.8;;;;;;;8.29;100;964.2322;;;;
2019/10/28 04:58:06;;;;;;;11.1;10.1;;;;;;;8.24;100;964.219;;;;
2019/10/28 05:00:31;;;;;;;11.4;10.4;;;;;;;8.31;100;964.1807;;;;
2019/10/28 05:02:56;;;;;;;9.1;8.3;;;;;;;8.23;100;964.1935;;;;
2019/10/28 05:05:21;;;;;;;9.1;8.2;;;;;;;8.42;100;964.2126;;;;
2019/10/28 05:07:46;;;;;;;9.1;8.3;;;;;;;8.36;100;964.2158;;;;
2019/10/28 05:10:11;;;;;;;8.8;8;;;;;;;8.42;100;964.3279;;;;
2019/10/28 05:12:36;;;;;;;8.3;7.6;;;;;;;8.27;100;964.2687;;;;
2019/10/28 05:15:01;;;;;;;7.5;6.8;;;;;;;8.15;100;964.2589;;;;
2019/10/28 05:17:26;;;;;;;8;7.3;;;;;;;8.2;100;964.2737;;;;
2019/10/28 05:19:51;;;;;;;7.8;7.2;;;;;;;8.06;100;964.2774;;;;
2019/10/28 05:22:16;;;;;;;7.8;7.2;;;;;;;8.1;100;964.3015;;;;
2019/10/28 05:24:41;;;;;;;8;7.3;;;;;;;8.08;100;964.2595;;;;
2019/10/28 05:27:06;;;;;;;7.1;6.6;;;;;;;8.06;100;964.2467;;;;
2019/10/28 05:29:32;;;;;;;7.6;7;;;;;;;8.05;100;964.2919;;;;
2019/10/28 05:31:57;;;;;;;7.4;6.7;;;;;;;8.21;100;964.3178;;;;
2019/10/28 05:34:22;;;;;;;7.1;6.5;;;;;;;8.16;100;964.3442;;;;
2019/10/28 05:36:47;;;;;;;7.6;7;;;;;;;7.99;100;964.3456;;;;
2019/10/28 05:39:12;;;;;;;6.8;6.2;;;;;;;8.08;100;964.3758;;;;
2019/10/28 05:41:37;;;;;;;7.1;6.5;;;;;;;8.05;100;964.4169;;;;
2019/10/28 05:44:02;;;;;;;7.5;6.8;;;;;;;8.12;100;964.4475;;;;
2019/10/28 05:46:27;;;;;;;8;7.3;;;;;;;8.16;100;964.4537;;;;
2019/10/28 05:48:52;;;;;;;7.2;6.6;;;;;;;8.05;100;964.4021;;;;
2019/10/28 05:51:18;;;;;;;6.3;5.8;;;;;;;8.04;100;964.426;;;;
2019/10/28 05:53:43;;;;;;;7.7;7.1;;;;;;;7.97;100;964.4219;;;;
2019/10/28 05:56:08;;;;;;;8.7;8;;;;;;;8.02;100;964.4156;;;;
2019/10/28 05:58:33;;;;;;;8.6;7.9;;;;;;;7.84;100;964.4124;;;;
2019/10/28 06:00:58;;;;;;;8.4;7.6;;;;;;;7.94;100;964.4012;;;;
2019/10/28 06:03:23;;;;;;;10.7;9.7;;;;;;;8.06;100;964.4065;;;;
2019/10/28 06:05:48;;;;;;;9.4;8.6;;;;;;;8.03;100;964.4734;;;;
2019/10/28 06:08:13;;;;;;;9.8;9;;;;;;;8.07;100;964.5219;;;;
2019/10/28 06:10:38;;;;;;;9.4;8.6;;;;;;;7.96;100;964.5442;;;;
2019/10/28 06:13:04;;;;;;;10.3;9.4;;;;;;;8.06;100;964.5647;;;;
2019/10/28 06:15:29;;;;;;;10.5;9.6;;;;;;;8;100;964.5967;;;;
2019/10/28 06:17:54;;;;;;;10.9;9.9;;;;;;;7.93;100;964.6292;;;;
2019/10/28 06:20:19;;;;;;;10;9.2;;;;;;;8.13;100;964.6638;;;;
2019/10/28 06:22:44;;;;;;;9.2;8.3;;;;;;;8.03;100;964.7366;;;;
2019/10/28 06:25:09;;;;;;;10.2;9.3;;;;;;;8.13;100;964.7101;;;;
2019/10/28 06:27:34;;;;;;;8.4;7.6;;;;;;;8.13;100;964.7093;;;;
2019/10/28 06:29:59;;;;;;;8.3;7.6;;;;;;;8.02;100;964.7647;;;;
2019/10/28 06:32:25;;;;;;;8.3;7.6;;;;;;;7.86;100;964.7665;;;;
2019/10/28 06:34:50;;;;;;;8.7;7.9;;;;;;;7.77;100;964.7874;;;;
2019/10/28 06:37:16;;;;;;;8.3;7.5;;;;;;;7.94;100;964.8346;;;;
2019/10/28 06:39:47;;;;;;;8.2;7.4;;;;;;;7.85;100;964.8166;;;;
2019/10/28 06:42:07;;;;;;;9.1;8.2;;;;;;;7.94;100;964.8849;;;;
2019/10/28 06:44:31;;;;;;;8.8;8;;;;;;;7.89;100;964.9089;;;;
2019/10/28 06:46:57;;;;;;;10.1;9.1;;;;;;;7.9;100;964.8942;;;;
2019/10/28 06:49:22;;;;;;;9.5;8.5;;;;;;;7.49;100;964.93;;;;
2019/10/28 06:51:47;;;;;;;7.9;7.1;;;;;;;7.66;100;964.8954;;;;
2019/10/28 06:54:13;;;;;;;8.5;7.6;;;;;;;7.49;100;964.9204;;;;
2019/10/28 06:56:38;;;;;;;8.8;7.6;;;;;;;7.46;100;964.9589;;;;
2019/10/28 06:59:03;;;;;;;10.1;8.8;;;;;;;7.32;100;964.9736;;;;
2019/10/28 07:01:28;;;;;;;10.6;8.6;;;;;;;7.27;100;965.0422;;;;
2019/10/28 07:03:53;;;;;;;12;8.9;;;;;;;7.31;100;965.0112;;;;
2019/10/28 07:06:19;;;;;;;12.4;9.4;;;;;;;7.24;100;964.9997;;;;
2019/10/28 07:08:44;;;;;;;11.3;9.2;;;;;;;7.5;100;965.0568;;;;
2019/10/28 07:11:09;;;;;;;11.5;9.4;;;;;;;7.32;100;965.0869;;;;
2019/10/28 07:13:34;;;;;;;13.8;9.8;;;;;;;7.22;100;965.1063;;;;
2019/10/28 07:15:59;;;;;;;12.4;10.1;;;;;;;7.44;100;965.082;;;;
2019/10/28 07:18:25;;;;;;;11.7;10.3;;;;;;;7.35;100;965.097;;;;
2019/10/28 07:20:50;;;;;;;13.4;10.3;;;;;;;7.53;100;965.1375;;;;
2019/10/28 07:23:15;;;;;;;12.3;10.1;;;;;;;7.56;100;965.0739;;;;
2019/10/28 07:25:40;;;;;;;12.2;10.6;;;;;;;7.55;100;965.0889;;;;
2019/10/28 07:28:05;;;;;;;15.3;10.8;;;;;;;7.49;100;965.1522;;;;
2019/10/28 07:30:31;;;;;;;13.4;11.2;;;;;;;7.31;100;965.1677;;;;
2019/10/28 07:32:56;;;;;;;14;12;;;;;;;7.28;100;965.198;;;;
2019/10/28 07:35:21;;;;;;;12.8;11.4;;;;;;;7.54;100;965.25;;;;
2019/10/28 07:37:46;;;;;;;13.9;12.5;;;;;;;7.56;100;965.2798;;;;
2019/10/28 07:40:11;;;;;;;13.6;11.5;;;;;;;7.34;100;965.3052;;;;
2019/10/28 07:42:36;;;;;;;14.6;11.7;;;;;;;7.34;100;965.2595;;;;
2019/10/28 07:45:01;;;;;;;14.6;12.5;;;;;;;7.48;100;965.2517;;;;
2019/10/28 07:47:26;;;;;;;14.5;12.1;;;;;;;7.25;100;965.2504;;;;
2019/10/28 07:49:52;;;;;;;14.5;12.9;;;;;;;7.42;100;965.255;;;;
2019/10/28 07:52:17;;;;;;;16.6;11.9;;;;;;;7.31;100;965.2684;;;;
2019/10/28 07:54:42;;;;;;;16.2;13.2;;;;;;;7.48;100;965.2119;;;;
2019/10/28 07:57:07;;;;;;;14.7;12.8;;;;;;;7.6;100;965.2386;;;;
2019/10/28 07:59:32;;;;;;;14.8;13.2;;;;;;;7.56;100;965.2742;;;;
2019/10/28 08:01:57;;;;;;;17;12.8;;;;;;;7.67;100;965.3103;;;;
2019/10/28 08:04:23;;;;;;;15;12.5;;;;;;;7.65;100;965.2428;;;;
2019/10/28 08:06:48;;;;;;;14.5;13;;;;;;;7.83;100;965.2442;;;;
2019/10/28 08:09:14;;;;;;;16.9;13.6;;;;;;;7.65;100;965.2332;;;;
2019/10/28 08:11:39;;;;;;;14.6;12.8;;;;;;;7.62;100;965.2205;;;;
2019/10/28 08:14:04;;;;;;;16.7;12.1;;;;;;;7.65;100;965.2443;;;;
2019/10/28 08:16:29;;;;;;;13.2;11.2;;;;;;;7.53;100;965.2399;;;;
2019/10/28 08:18:55;;;;;;;16.7;12.6;;;;;;;7.25;100;965.2424;;;;
2019/10/28 08:21:20;;;;;;;14.9;12.6;;;;;;;7.33;100;965.2723;;;;
2019/10/28 08:23:45;;;;;;;14.7;12.8;;;;;;;7.51;100;965.2327;;;;
2019/10/28 08:26:10;;;;;;;16.2;13.9;;;;;;;7.67;100;965.2299;;;;
2019/10/28 08:28:36;;;;;;;16;14.3;;;;;;;7.63;100;965.2001;;;;
2019/10/28 08:31:01;;;;;;;15.6;13.6;;;;;;;7.68;100;965.1523;;;;
2019/10/28 08:33:26;;;;;;;16.4;14.6;;;;;;;7.71;100;965.1404;;;;
2019/10/28 08:35:51;;;;;;;18.9;15.8;;;;;;;7.57;100;965.1417;;;;
2019/10/28 08:38:16;;;;;;;18.2;16.3;;;;;;;7.61;100;965.1838;;;;
2019/10/28 08:40:41;;;;;;;16.8;15.1;;;;;;;7.64;100;965.2003;;;;
2019/10/28 08:43:07;;;;;;;14.4;13;;;;;;;7.63;100;965.2564;;;;
2019/10/28 08:45:32;;;;;;;15.9;13.7;;;;;;;7.67;100;965.2647;;;;
2019/10/28 08:47:57;;;;;;;15.8;14.1;;;;;;;7.7;100;965.2871;;;;
2019/10/28 08:50:22;;;;;;;16;14.3;;;;;;;7.64;100;965.2773;;;;
2019/10/28 08:52:47;;;;;;;16.5;13.6;;;;;;;7.5;100;965.271;;;;
2019/10/28 08:55:12;;;;;;;16.9;15.2;;;;;;;7.54;100;965.2679;;;;
2019/10/28 08:57:37;;;;;;;17.1;15.4;;;;;;;7.44;100;965.2904;;;;
2019/10/28 09:00:03;;;;;;;17.8;16;;;;;;;7.44;100;965.2587;;;;
2019/10/28 09:02:28;;;;;;;17.5;15.7;;;;;;;7.54;100;965.3311;;;;
2019/10/28 09:04:53;;;;;;;16.2;14.5;;;;;;;7.49;100;965.2997;;;;
2019/10/28 09:07:18;;;;;;;17.7;15.9;;;;;;;7.6;100;965.2792;;;;
2019/10/28 09:09:44;;;;;;;18.3;16.4;;;;;;;7.63;100;965.2464;;;;
2019/10/28 09:12:09;;;;;;;19.7;17.7;;;;;;;7.59;100;965.2024;;;;
2019/10/28 09:14:35;;;;;;;20;17.9;;;;;;;7.77;100;965.2231;;;;
2019/10/28 09:17:00;;;;;;;20.5;18.5;;;;;;;7.93;100;965.2433;;;;
2019/10/28 09:19:25;;;;;;;20;17.9;;;;;;;7.81;100;965.2249;;;;
2019/10/28 09:21:50;;;;;;;20.6;18.5;;;;;;;7.82;100;965.2115;;;;
2019/10/28 09:24:15;;;;;;;20.5;18.4;;;;;;;7.78;100;965.1931;;;;
2019/10/28 09:26:41;;;;;;;20.6;18.5;;;;;;;7.69;100;965.2308;;;;
2019/10/28 09:29:06;;;;;;;20.3;18.3;;;;;;;7.69;100;965.2157;;;;
2019/10/28 09:31:31;;;;;;;17.7;15.9;;;;;;;7.78;100;965.2036;;;;
2019/10/28 09:33:56;;;;;;;15;12.2;;;;;;;7.94;100;965.2386;;;;
2019/10/28 09:36:22;;;;;;;11.9;9;;;;;;;7.76;100;965.2601;;;;
2019/10/28 09:38:47;;;;;;;13.8;10;;;;;;;7.54;100;965.2406;;;;
2019/10/28 09:41:12;;;;;;;13;10;;;;;;;7.6;100;965.2419;;;;
2019/10/28 09:43:37;;;;;;;15.3;9.3;;;;;;;7.48;100;965.2395;;;;
2019/10/28 09:46:02;;;;;;;15.1;10.6;;;;;;;7.74;100;965.2512;;;;
2019/10/28 09:48:27;;;;;;;12.7;9.1;;;;;;;7.82;100;965.2391;;;;
2019/10/28 09:50:52;;;;;;;15.6;10.5;;;;;;;7.94;100;965.2305;;;;
2019/10/28 09:53:18;;;;;;;18.1;11.8;;;;;;;7.99;100;965.2245;;;;
2019/10/28 09:55:43;;;;;;;16.7;11.3;;;;;;;7.8;100;965.1878;;;;
2019/10/28 09:58:08;;;;;;;13.3;11.5;;;;;;;7.72;100;965.2117;;;;
2019/10/28 10:00:33;;;;;;;17.1;12.8;;;;;;;7.81;100;965.2375;;;;
2019/10/28 10:02:59;;;;;;;13.7;12.2;;;;;;;7.98;100;965.2313;;;;
2019/10/28 10:05:24;;;;;;;17.1;13.1;;;;;;;8.09;100;965.2151;;;;
2019/10/28 10:07:49;;;;;;;15.6;13.9;;;;;;;8.01;100;965.2488;;;;
2019/10/28 10:10:14;;;;;;;18.3;14.9;;;;;;;8.04;100;965.248;;;;
2019/10/28 10:12:39;;;;;;;19.6;17.6;;;;;;;7.98;100;965.2191;;;;
2019/10/28 10:15:05;;;;;;;20.4;18.3;;;;;;;8.21;99.91406;965.2131;;;;
2019/10/28 10:17:30;;;;;;;19.3;17.5;;;;;;;8.35;98.34375;965.1544;;;;
2019/10/28 10:19:55;;;;;;;21.6;19.6;;;;;;;8.46;100;965.1259;;;;
2019/10/28 10:22:20;;;;;;;24.1;21.5;;;;;;;8.26;100;965.0496;;;;
2019/10/28 10:24:45;;;;;;;21.4;19.1;;;;;;;8.38;98.33887;965.0538;;;;
2019/10/28 10:27:11;;;;;;;20.2;18.2;;;;;;;8.27;97.18066;965.0369;;;;
2019/10/28 10:29:36;;;;;;;22;19.6;;;;;;;8.29;98.375;965.0563;;;;
2019/10/28 10:32:01;;;;;;;24.5;22;;;;;;;8.26;100;964.9942;;;;
2019/10/28 10:34:26;;;;;;;24.4;21.8;;;;;;;8.31;100;964.9277;;;;
2019/10/28 10:36:52;;;;;;;22.3;20.1;;;;;;;8.44;98.29785;964.9346;;;;
2019/10/28 10:39:17;;;;;;;21.8;19.6;;;;;;;8.32;96.4375;964.9252;;;;
2019/10/28 10:41:42;;;;;;;21.9;19.6;;;;;;;8.19;96.68359;964.8544;;;;
2019/10/28 10:44:08;;;;;;;24.1;21.5;;;;;;;8.22;97.14551;964.8635;;;;
2019/10/28 10:46:33;;;;;;;23.1;20.7;;;;;;;8.21;96.63086;964.8762;;;;
2019/10/28 10:48:58;;;;;;;23.3;20.9;;;;;;;8.17;97.67578;964.836;;;;
2019/10/28 10:51:23;;;;;;;25.6;22.9;;;;;;;8.35;99.47949;964.7525;;;;
2019/10/28 10:53:48;;;;;;;23.4;21.1;;;;;;;8.35;97.24707;964.7595;;;;
2019/10/28 10:56:14;;;;;;;24.1;21.6;;;;;;;8.47;97.3418;964.7366;;;;
2019/10/28 10:58:39;;;;;;;22.9;20.7;;;;;;;8.56;96.62891;964.735;;;;
2019/10/28 11:01:04;;;;;;;24.7;22.2;;;;;;;8.44;97.11816;964.7634;;;;
2019/10/28 11:03:29;;;;;;;23.3;21.1;;;;;;;8.74;97.27637;964.7161;;;;
2019/10/28 11:05:54;;;;;;;22.4;20.1;;;;;;;8.94;96.02539;964.7029;;;;
2019/10/28 11:08:20;;;;;;;21;18.7;;;;;;;8.8;93.63477;964.6937;;;;
2019/10/28 11:10:45;;;;;;;20.4;18.4;;;;;;;8.88;95.04883;964.6433;;;;
2019/10/28 11:13:11;;;;;;;17.2;15.5;;;;;;;8.94;92.17285;964.6111;;;;
2019/10/28 11:15:36;;;;;;;21;19;;;;;;;8.94;97.21973;964.6425;;;;
2019/10/28 11:18:01;;;;;;;17.6;15.9;;;;;;;8.96;92.83008;964.6096;;;;
2019/10/28 11:20:26;;;;;;;19;17;;;;;;;8.75;91.97461;964.5944;;;;
2019/10/28 11:22:51;;;;;;;17.4;15.8;;;;;;;8.75;94.24121;964.5424;;;;
2019/10/28 11:25:16;;;;;;;18.6;16.8;;;;;;;8.89;94.2959;964.4918;;;;
2019/10/28 11:27:41;;;;;;;16.9;15.2;;;;;;;9;91.99121;964.47;;;;
2019/10/28 11:30:07;;;;;;;19.1;17.2;;;;;;;9.05;95.98047;964.4068;;;;
2019/10/28 11:32:32;;;;;;;18.1;16.4;;;;;;;8.83;92.73438;964.4191;;;;
2019/10/28 11:34:57;;;;;;;19.4;16.3;;;;;;;8.83;91.02637;964.3477;;;;
2019/10/28 11:37:22;;;;;;;17.5;15.7;;;;;;;8.74;91.09961;964.3006;;;;
2019/10/28 11:39:48;;;;;;;17.3;15.5;;;;;;;8.75;90.83789;964.2604;;;;
2019/10/28 11:42:13;;;;;;;17;15.5;;;;;;;8.67;89.7666;964.2592;;;;
2019/10/28 11:44:38;;;;;;;18.8;16.9;;;;;;;8.69;90.92773;964.26;;;;
2019/10/28 11:47:03;;;;;;;18.5;16.7;;;;;;;8.83;91.43945;964.2283;;;;
2019/10/28 11:49:28;;;;;;;17.3;15.5;;;;;;;8.82;92.91406;964.2292;;;;
2019/10/28 11:51:54;;;;;;;18.7;16.9;;;;;;;8.96;93.56641;964.1577;;;;
2019/10/28 11:54:19;;;;;;;17.2;15.6;;;;;;;9.05;91.53125;964.1768;;;;
2019/10/28 11:56:44;;;;;;;19.5;17.5;;;;;;;8.78;90.94629;964.1241;;;;
2019/10/28 11:59:10;;;;;;;20.3;18.3;;;;;;;8.55;92.7207;964.1358;;;;
2019/10/28 12:01:35;;;;;;;21;18.8;;;;;;;8.56;92.7207;964.1223;;;;
2019/10/28 12:04:00;;;;;;;18.9;17;;;;;;;8.55;92.0791;964.0877;;;;
2019/10/28 12:06:25;;;;;;;21.1;19.1;;;;;;;8.87;95.40234;964.0636;;;;
2019/10/28 12:08:50;;;;;;;17.5;15.7;;;;;;;8.77;91.49512;964.0726;;;;
2019/10/28 12:11:15;;;;;;;17.7;16;;;;;;;8.75;91.74316;964.0353;;;;
2019/10/28 12:13:41;;;;;;;18.3;15.7;;;;;;;8.65;91.99707;964.041;;;;
2019/10/28 12:16:06;;;;;;;16.7;14.6;;;;;;;8.65;91.5957;964.0328;;;;
2019/10/28 12:18:31;;;;;;;15.8;14.2;;;;;;;8.66;91.04785;963.9997;;;;
2019/10/28 12:20:57;;;;;;;15.4;12.9;;;;;;;8.62;89.76855;963.9783;;;;
2019/10/28 12:23:22;;;;;;;14.4;12.9;;;;;;;8.61;90.0166;963.9793;;;;
2019/10/28 12:25:47;;;;;;;15.2;13.6;;;;;;;8.55;90.57813;963.9528;;;;
2019/10/28 12:28:12;;;;;;;16.8;15.1;;;;;;;8.72;91.64355;963.9537;;;;
2019/10/28 12:30:37;;;;;;;15.4;13.8;;;;;;;8.94;92.02344;963.8942;;;;
2019/10/28 12:33:02;;;;;;;16.8;15.1;;;;;;;9.02;93.52051;963.8425;;;;
2019/10/28 12:35:28;;;;;;;15.1;13.6;;;;;;;8.97;89.50879;963.766;;;;
2019/10/28 12:37:53;;;;;;;13.8;12.5;;;;;;;9.05;90.88867;963.7946;;;;
2019/10/28 12:40:18;;;;;;;14.7;13.2;;;;;;;9.09;91.63379;963.815;;;;
2019/10/28 12:42:43;;;;;;;14.1;12.7;;;;;;;9.21;90.10938;963.769;;;;
2019/10/28 12:45:09;;;;;;;13.1;11.7;;;;;;;9.1;88.57129;963.7736;;;;
2019/10/28 12:47:34;;;;;;;13.1;11.7;;;;;;;9.24;91.25098;963.7766;;;;
2019/10/28 12:49:59;;;;;;;12.3;10.2;;;;;;;9.43;89.77441;963.7488;;;;
2019/10/28 12:52:24;;;;;;;13;11.1;;;;;;;9.53;89.2666;963.7459;;;;
2019/10/28 12:54:49;;;;;;;10.9;9.5;;;;;;;9.33;86.2207;963.7769;;;;
2019/10/28 12:57:14;;;;;;;9.8;8.8;;;;;;;9.22;85.60254;963.7489;;;;
2019/10/28 12:59:40;;;;;;;10.5;7.8;;;;;;;9.22;86.14063;963.7513;;;;
2019/10/28 13:02:05;;;;;;;10.2;7.2;;;;;;;9.36;87.5;963.746;;;;
2019/10/28 13:04:30;;;;;;;8;6.7;;;;;;;9.15;84.41797;963.675;;;;
2019/10/28 13:06:55;;;;;;;10.1;7.7;;;;;;;9.09;86.6543;963.6853;;;;
2019/10/28 13:09:20;;;;;;;7.4;6.3;;;;;;;8.93;82.26465;963.7307;;;;
2019/10/28 13:11:45;;;;;;;9.6;6.6;;;;;;;8.88;83.95313;963.7773;;;;
2019/10/28 13:14:11;;;;;;;7.9;6.7;;;;;;;9.1;83.94922;963.7338;;;;
2019/10/28 13:16:36;;;;;;;8.6;6.6;;;;;;;8.89;84.68848;963.7451;;;;
2019/10/28 13:19:01;;;;;;;9;7.1;;;;;;;8.91;85.79297;963.7975;;;;
2019/10/28 13:21:26;;;;;;;9;6.8;;;;;;;8.65;84.04492;963.7502;;;;
2019/10/28 13:23:51;;;;;;;9.1;7;;;;;;;8.68;85.0127;963.7861;;;;
2019/10/28 13:26:16;;;;;;;9.4;7.6;;;;;;;8.88;86.19824;963.7363;;;;
2019/10/28 13:28:48;;;;;;;9.1;7.2;;;;;;;8.86;84.09668;963.7399;;;;
2019/10/28 13:31:07;;;;;;;9.4;7;;;;;;;8.76;84.2041;963.7678;;;;
2019/10/28 13:33:32;;;;;;;8.9;7.3;;;;;;;8.77;85.01953;963.7444;;;;
2019/10/28 13:35:57;;;;;;;9.4;7.7;;;;;;;8.67;86.84668;963.7575;;;;
2019/10/28 13:38:22;;;;;;;10.6;7.7;;;;;;;8.7;86.35938;963.7435;;;;
2019/10/28 13:40:47;;;;;;;10.1;7.5;;;;;;;8.87;86.83887;963.7346;;;;
2019/10/28 13:43:13;;;;;;;11.1;8.2;;;;;;;8.91;87.4209;963.6828;;;;
2019/10/28 13:45:38;;;;;;;12.4;8.5;;;;;;;8.83;87.37012;963.7341;;;;
2019/10/28 13:48:03;;;;;;;11.4;9.4;;;;;;;8.87;89.00488;963.6702;;;;
2019/10/28 13:50:28;;;;;;;11.6;8.7;;;;;;;8.64;88.78711;963.6887;;;;
2019/10/28 13:53:05;;;;;;;11.3;7.8;;;;;;;8.55;87.875;963.663;;;;
2019/10/28 13:55:18;;;;;;;9.8;7.3;;;;;;;8.67;88.24414;963.6682;;;;
2019/10/28 13:57:43;;;;;;;9.5;7.1;;;;;;;8.85;89.65527;963.6314;;;;
2019/10/28 14:00:09;;;;;;;9.2;7.3;;;;;;;8.78;88.24316;963.7349;;;;
2019/10/28 14:02:34;;;;;;;9.9;7.4;;;;;;;8.85;87.47656;963.7208;;;;
2019/10/28 14:04:59;;;;;;;10.3;7.7;;;;;;;8.76;87.90527;963.7874;;;;
2019/10/28 14:07:24;;;;;;;11.1;7.9;;;;;;;8.89;88.67773;963.6588;;;;
2019/10/28 14:09:49;;;;;;;9.9;7.1;;;;;;;;;;;;;
2019/10/28 14:12:14;;;;;;;9;7.6;;;;;;;;;;;;;
2019/10/28 14:14:39;;;;;;;10.1;7.1;;;;;;;;;;;;;
2019/10/28 14:17:04;;;;;;;9.8;7.3;;;;;;;;;;;;;
2019/10/28 14:19:29;;;;;;;9.9;8.1;;;;;;;;;;;;;
2019/10/28 14:21:54;;;;;;;10.1;8.1;;;;;;;;;;;;;
2019/10/28 14:24:19;;;;;;;8.9;7.1;;;;;;;;;;;;;
2019/10/28 14:26:45;;;;;;;8.4;7.5;;;;;;;;;;;;;
2019/10/28 14:29:10;;;;;;;11.1;8.5;;;;;;;;;;;;;
2019/10/28 14:31:35;;;;;;;13.1;8.6;;;;;;;;;;;;;
2019/10/28 14:34:00;;;;;;;9.6;7.3;;;;;;;;;;;;;
2019/10/28 14:36:25;;;;;;;11;6.9;;;;;;;;;;;;;
2019/10/28 14:38:50;;;;;;;9.1;6.5;;;;;;;;;;;;;
2019/10/28 14:41:15;;;;;;;11;6.4;;;;;;;;;;;;;
2019/10/28 14:43:40;;;;;;;9.8;5.7;;;;;;;;;;;;;
2019/10/28 14:46:05;;;;;;;9.2;5.4;;;;;;;;;;;;;
2019/10/28 14:48:30;;;;;;;9.2;5.6;;;;;;;;;;;;;
2019/10/28 14:50:55;;;;;;;9.6;5.9;;;;;;;;;;;;;
2019/10/28 14:53:20;;;;;;;10.2;5.9;;;;;;;;;;;;;
2019/10/28 14:55:45;;;;;;;9.4;6.2;;;;;;;;;;;;;
2019/10/28 14:58:10;;;;;;;10.5;6;;;;;;;;;;;;;
2019/10/28 15:00:36;;;;;;;9;5.8;;;;;;;;;;;;;
2019/10/28 15:03:01;;;;;;;8.2;5.5;;;;;;;;;;;;;
2019/10/28 15:05:26;;;;;;;8.3;4.9;;;;;;;;;;;;;
2019/10/28 15:07:51;;;;;;;8;5.6;;;;;;;;;;;;;
2019/10/28 15:10:16;;;;;;;10.3;5.6;;;;;;;;;;;;;
2019/10/28 15:12:41;;;;;;;8.6;5.5;;;;;;;;;;;;;